Time;durP1;ratioP1;P1;durP2;ratioP2;P2;SDS_P1;SDS_P2;PMS_P1;PMS_P2;Temp;Humidity;BMP_temperature;BMP_pressure;BME280_temperature;BME280_humidity;BME280_pressure;Samples;Min_cycle;Max_cycle;Signal;HPM_P1;HPM_P2
2021/12/24 00:01:24;;;;;;;2.78;1.08;;;24.10;99.90;;;;;;5056486;28;20590;-75
2021/12/24 00:03:55;;;;;;;3.85;1.27;;;24.40;99.90;;;;;;5055176;28;20680;-75
2021/12/24 00:06:25;;;;;;;5.30;1.50;;;24.50;99.90;;;;;;5055943;28;20198;-75
2021/12/24 00:08:56;;;;;;;3.35;1.00;;;24.50;99.90;;;;;;5055321;28;20186;-75
2021/12/24 00:11:28;;;;;;;5.47;1.20;;;24.50;99.90;;;;;;5050284;28;20241;-75
2021/12/24 00:14:01;;;;;;;5.18;1.23;;;24.20;99.90;;;;;;5053006;28;20299;-75
2021/12/24 00:16:39;;;;;;;3.92;1.10;;;24.20;99.90;;;;;;5050848;28;20276;-75
2021/12/24 00:19:20;;;;;;;5.50;1.42;;;24.10;99.90;;;;;;5055215;28;20233;-74
2021/12/24 00:22:19;;;;;;;4.47;1.30;;;24.10;99.90;;;;;;5055563;28;20721;-75
2021/12/24 00:35:58;;;;;;;4.80;1.55;;;23.80;99.90;;;;;;5055323;28;20196;-75
2021/12/24 00:38:28;;;;;;;5.28;1.40;;;23.70;99.90;;;;;;5047604;28;20411;-75
2021/12/24 00:40:59;;;;;;;6.35;1.40;;;23.70;99.90;;;;;;5054267;28;20613;-75
2021/12/24 00:43:31;;;;;;;4.40;1.80;;;23.80;99.90;;;;;;5054963;28;20190;-75
2021/12/24 00:46:02;;;;;;;3.55;1.38;;;24.00;99.90;;;;;;5053811;28;20601;-76
2021/12/24 00:48:33;;;;;;;6.72;1.80;;;24.00;99.90;;;;;;5052543;28;20190;-75
2021/12/24 00:51:19;;;;;;;5.82;1.60;;;24.10;99.90;;;;;;5054418;28;20221;-74
2021/12/24 00:56:36;;;;;;;6.72;1.70;;;24.00;99.90;;;;;;5054083;28;20661;-75
2021/12/24 00:59:09;;;;;;;3.22;1.50;;;24.00;99.90;;;;;;5061009;28;20268;-75
2021/12/24 01:01:43;;;;;;;3.58;1.77;;;23.90;99.90;;;;;;5054384;28;20201;-76
2021/12/24 01:04:13;;;;;;;4.85;1.88;;;23.90;99.90;;;;;;5054296;28;20653;-75
2021/12/24 01:06:44;;;;;;;4.65;1.88;;;23.80;99.90;;;;;;5055028;28;20186;-75
2021/12/24 01:09:15;;;;;;;4.28;2.08;;;23.90;99.90;;;;;;5054369;28;20196;-75
2021/12/24 01:11:46;;;;;;;4.88;1.63;;;23.90;99.90;;;;;;5054514;28;20688;-75
2021/12/24 01:14:20;;;;;;;4.93;1.80;;;24.10;99.90;;;;;;5053706;28;20193;-75
2021/12/24 01:16:59;;;;;;;5.90;1.88;;;24.00;99.90;;;;;;5047978;28;20629;-74
2021/12/24 01:19:30;;;;;;;7.35;1.80;;;24.10;99.90;;;;;;5054551;28;20285;-75
2021/12/24 01:22:32;;;;;;;4.47;2.00;;;24.30;99.90;;;;;;5054824;28;20205;-75
2021/12/24 01:25:03;;;;;;;5.30;2.08;;;24.30;99.90;;;;;;5047609;28;20208;-75
2021/12/24 01:27:55;;;;;;;7.22;1.70;;;24.50;99.90;;;;;;5051845;28;20276;-76
2021/12/24 01:39:08;;;;;;;4.43;1.80;;;24.30;99.90;;;;;;5053827;28;20660;-75
2021/12/24 01:44:27;;;;;;;7.70;2.00;;;24.40;99.90;;;;;;5054680;28;20193;-76
2021/12/24 01:47:01;;;;;;;3.10;1.40;;;24.50;99.90;;;;;;5054335;28;20185;-75
2021/12/24 01:49:32;;;;;;;5.32;1.70;;;24.80;99.90;;;;;;5054036;28;20208;-74
2021/12/24 01:52:04;;;;;;;6.15;1.85;;;24.80;99.90;;;;;;5053496;28;20216;-75
2021/12/24 01:54:35;;;;;;;4.97;2.05;;;24.70;99.90;;;;;;5053142;28;20280;-74
2021/12/24 01:57:07;;;;;;;5.13;1.60;;;24.60;99.90;;;;;;5046294;28;20268;-74
2021/12/24 01:59:37;;;;;;;5.43;1.88;;;24.60;99.90;;;;;;5054157;28;20193;-74
2021/12/24 02:02:10;;;;;;;4.28;1.80;;;24.50;99.90;;;;;;5054120;28;20186;-74
2021/12/24 02:04:41;;;;;;;4.65;1.70;;;24.60;99.90;;;;;;5052219;28;20630;-74
2021/12/24 02:07:12;;;;;;;3.97;1.55;;;24.80;99.90;;;;;;5053334;28;20190;-74
2021/12/24 02:09:45;;;;;;;6.03;1.80;;;25.00;99.90;;;;;;5056299;28;20229;-75
2021/12/24 02:12:16;;;;;;;4.45;1.60;;;25.00;99.90;;;;;;5046392;28;20677;-75
2021/12/24 02:14:51;;;;;;;4.90;1.83;;;24.90;99.90;;;;;;5058411;28;20182;-75
2021/12/24 02:17:43;;;;;;;6.57;1.67;;;24.90;99.90;;;;;;5053493;28;20193;-74
2021/12/24 02:28:43;;;;;;;4.28;1.80;;;25.30;99.90;;;;;;5048690;28;20193;-75
2021/12/24 02:31:18;;;;;;;4.03;1.73;;;25.30;99.90;;;;;;5044506;28;20201;-75
2021/12/24 02:33:48;;;;;;;3.58;1.70;;;25.30;99.90;;;;;;5052405;28;20192;-75
2021/12/24 02:36:22;;;;;;;5.53;1.90;;;25.30;99.90;;;;;;5048088;28;20186;-75
2021/12/24 02:38:54;;;;;;;3.13;1.80;;;25.40;99.90;;;;;;5053263;28;20221;-75
2021/12/24 02:41:24;;;;;;;4.70;1.77;;;25.40;99.90;;;;;;5045127;28;20189;-74
2021/12/24 02:43:55;;;;;;;5.40;2.20;;;25.40;99.90;;;;;;5046991;28;20194;-75
2021/12/24 02:46:32;;;;;;;3.58;1.83;;;25.40;99.90;;;;;;5045201;28;20198;-75
2021/12/24 02:49:11;;;;;;;4.07;1.90;;;25.50;99.90;;;;;;5053016;28;20197;-74
2021/12/24 02:54:31;;;;;;;3.90;1.85;;;25.80;99.90;;;;;;5049107;28;20186;-75
2021/12/24 02:57:08;;;;;;;5.47;2.00;;;25.80;99.90;;;;;;5050293;28;20193;-75
2021/12/24 02:59:47;;;;;;;3.80;2.30;;;25.80;99.90;;;;;;5053200;28;20280;-74
2021/12/24 03:02:18;;;;;;;5.07;1.75;;;25.70;99.90;;;;;;5052856;28;20193;-74
2021/12/24 03:04:48;;;;;;;4.95;1.70;;;25.70;99.90;;;;;;5052861;28;20186;-75
2021/12/24 03:07:21;;;;;;;3.58;1.80;;;25.90;99.90;;;;;;5051944;28;20194;-75
2021/12/24 03:09:52;;;;;;;3.15;1.95;;;25.90;99.90;;;;;;5052192;28;20233;-75
2021/12/24 03:12:23;;;;;;;4.88;2.10;;;26.00;99.90;;;;;;5048179;28;20301;-74
2021/12/24 03:14:54;;;;;;;3.83;1.90;;;25.90;99.90;;;;;;5046731;28;20197;-75
2021/12/24 03:17:26;;;;;;;5.18;2.00;;;25.90;99.90;;;;;;5044378;28;20196;-75
2021/12/24 03:20:03;;;;;;;3.83;1.83;;;25.90;99.90;;;;;;5052822;28;20530;-75
2021/12/24 03:22:45;;;;;;;3.70;1.98;;;26.10;99.90;;;;;;5052826;28;20220;-76
2021/12/24 03:25:16;;;;;;;6.70;1.90;;;26.20;99.90;;;;;;5046159;28;20205;-76
2021/12/24 03:27:47;;;;;;;3.42;1.83;;;26.20;99.90;;;;;;5044457;28;20181;-75
2021/12/24 03:30:17;;;;;;;5.35;1.83;;;26.30;99.90;;;;;;5044234;28;20190;-77
2021/12/24 03:32:48;;;;;;;6.53;1.77;;;26.30;99.90;;;;;;5044499;28;20672;-76
2021/12/24 03:35:19;;;;;;;4.18;1.80;;;26.30;99.90;;;;;;5052627;28;20549;-75
2021/12/24 03:37:52;;;;;;;3.45;1.60;;;26.20;99.90;;;;;;5052182;28;20185;-75
2021/12/24 03:40:22;;;;;;;6.28;2.10;;;26.30;99.90;;;;;;5052623;28;20194;-75
2021/12/24 03:42:53;;;;;;;6.78;2.00;;;26.40;99.90;;;;;;5046191;28;20249;-75
2021/12/24 03:45:29;;;;;;;6.72;2.10;;;26.50;99.90;;;;;;5052672;28;20205;-75
2021/12/24 03:48:03;;;;;;;5.03;1.85;;;26.50;99.90;;;;;;5041026;28;20323;-76
2021/12/24 03:50:48;;;;;;;5.32;2.05;;;26.50;99.90;;;;;;5048883;28;20231;-75
2021/12/24 03:56:08;;;;;;;5.57;2.05;;;26.30;99.90;;;;;;5045523;28;20240;-78
2021/12/24 03:58:38;;;;;;;6.28;1.80;;;26.40;99.90;;;;;;5052301;28;20193;-75
2021/12/24 04:01:09;;;;;;;7.40;1.80;;;26.30;99.90;;;;;;5052322;28;20637;-75
2021/12/24 04:03:40;;;;;;;5.20;1.83;;;26.30;99.90;;;;;;5052104;28;20201;-75
2021/12/24 04:06:11;;;;;;;3.22;1.58;;;26.30;99.90;;;;;;5052499;28;20194;-75
2021/12/24 04:08:44;;;;;;;6.82;1.88;;;26.20;99.90;;;;;;5051889;28;20213;-75
2021/12/24 04:11:14;;;;;;;4.75;1.80;;;26.30;99.90;;;;;;5052215;28;20233;-75
2021/12/24 04:13:45;;;;;;;4.13;1.90;;;26.30;99.90;;;;;;5051768;28;20583;-75
2021/12/24 04:16:16;;;;;;;6.68;1.90;;;26.40;99.90;;;;;;5045588;28;20189;-75
2021/12/24 04:18:54;;;;;;;7.80;1.88;;;26.40;99.90;;;;;;5053723;28;20577;-75
2021/12/24 04:27:02;;;;;;;8.00;1.75;;;26.10;99.90;;;;;;5052372;28;20266;-75
2021/12/24 04:29:32;;;;;;;6.70;1.88;;;26.10;99.90;;;;;;5055893;28;20189;-75
2021/12/24 04:32:13;;;;;;;5.63;1.60;;;26.10;99.90;;;;;;5055590;28;20188;-76
2021/12/24 04:34:48;;;;;;;6.40;2.00;;;26.10;99.90;;;;;;5055796;28;20185;-76
2021/12/24 04:51:18;;;;;;;7.68;1.90;;;25.90;99.90;;;;;;5054522;28;20248;-76
2021/12/24 05:02:28;;;;;;;8.10;2.15;;;25.90;99.90;;;;;;5055080;28;20240;-76
2021/12/24 05:05:07;;;;;;;7.57;2.03;;;25.90;99.90;;;;;;5055452;28;20285;-76
2021/12/24 05:08:08;;;;;;;6.18;2.00;;;25.70;99.90;;;;;;5054634;28;20188;-76
2021/12/24 05:10:39;;;;;;;6.95;2.17;;;25.50;99.90;;;;;;5054839;28;20248;-75
2021/12/24 05:13:14;;;;;;;4.93;1.90;;;25.40;99.90;;;;;;5055032;28;20209;-75
2021/12/24 05:15:48;;;;;;;9.25;2.50;;;25.40;99.90;;;;;;5047487;28;20556;-76
2021/12/24 05:18:33;;;;;;;7.80;1.90;;;25.20;99.90;;;;;;5055129;28;20277;-75
2021/12/24 05:23:50;;;;;;;9.50;2.13;;;25.20;99.90;;;;;;5054990;28;20193;-75
2021/12/24 05:26:22;;;;;;;10.13;2.10;;;25.10;99.90;;;;;;5054758;28;20190;-76
2021/12/24 05:28:56;;;;;;;8.07;2.30;;;25.10;99.90;;;;;;5054690;28;20196;-76
2021/12/24 05:31:27;;;;;;;11.07;2.60;;;25.10;99.90;;;;;;5054991;28;20645;-75
2021/12/24 05:33:58;;;;;;;8.65;2.33;;;25.10;99.90;;;;;;5054316;28;20221;-76
2021/12/24 05:36:29;;;;;;;7.55;2.22;;;25.10;99.90;;;;;;5054385;28;20287;-75
2021/12/24 05:39:00;;;;;;;6.97;2.03;;;25.20;99.90;;;;;;5054309;28;20227;-75
2021/12/24 05:41:31;;;;;;;7.80;2.22;;;25.20;99.90;;;;;;5054406;28;20189;-75
2021/12/24 05:44:04;;;;;;;7.32;2.10;;;25.20;99.90;;;;;;5054268;28;20190;-75
2021/12/24 05:46:35;;;;;;;8.68;2.58;;;25.30;99.90;;;;;;5051437;28;20190;-75
2021/12/24 05:49:06;;;;;;;7.07;2.20;;;25.30;99.90;;;;;;5053014;28;20596;-76
2021/12/24 05:51:36;;;;;;;10.15;2.40;;;25.20;99.90;;;;;;5050448;28;20220;-76
2021/12/24 05:54:07;;;;;;;6.90;2.25;;;25.10;99.90;;;;;;5054180;28;20221;-76
2021/12/24 05:56:38;;;;;;;10.40;2.45;;;25.20;99.90;;;;;;5054105;28;20193;-75
2021/12/24 05:59:11;;;;;;;10.75;2.45;;;25.20;99.90;;;;;;5054127;28;20562;-75
2021/12/24 06:01:42;;;;;;;6.93;2.35;;;25.10;99.90;;;;;;5054047;28;20221;-75
2021/12/24 06:04:12;;;;;;;10.55;2.60;;;25.00;99.90;;;;;;5056486;28;20189;-76
2021/12/24 06:06:43;;;;;;;13.65;2.47;;;25.00;99.90;;;;;;5054071;28;20590;-75
2021/12/24 06:09:16;;;;;;;9.30;2.58;;;25.00;99.90;;;;;;5053865;28;20197;-76
2021/12/24 06:11:47;;;;;;;8.02;2.40;;;25.10;99.90;;;;;;5053522;28;20281;-76
2021/12/24 06:14:21;;;;;;;9.63;2.40;;;25.10;99.90;;;;;;5053875;28;20575;-76
2021/12/24 06:17:00;;;;;;;7.53;2.25;;;25.20;99.90;;;;;;5053797;28;20637;-76
2021/12/24 06:19:32;;;;;;;8.02;2.00;;;25.10;99.90;;;;;;5053289;28;20192;-76
2021/12/24 06:22:03;;;;;;;9.05;2.28;;;25.10;99.90;;;;;;5053187;28;20247;-75
2021/12/24 06:24:34;;;;;;;8.80;2.13;;;25.20;99.90;;;;;;5052985;28;20197;-76
2021/12/24 06:27:05;;;;;;;10.52;2.60;;;25.20;99.90;;;;;;5053457;28;20189;-76
2021/12/24 06:29:37;;;;;;;11.02;2.35;;;25.10;99.90;;;;;;5056706;28;20192;-75
2021/12/24 06:32:08;;;;;;;8.55;2.50;;;25.00;99.90;;;;;;5057095;28;20216;-75
2021/12/24 06:34:39;;;;;;;8.75;2.30;;;25.00;99.90;;;;;;5052109;28;20213;-76
2021/12/24 06:37:13;;;;;;;11.05;2.38;;;25.00;99.90;;;;;;5059279;28;20200;-75
2021/12/24 06:39:44;;;;;;;11.48;2.40;;;25.00;99.90;;;;;;5052720;28;20687;-75
2021/12/24 06:42:15;;;;;;;9.32;2.97;;;25.00;99.90;;;;;;5050668;28;20668;-75
2021/12/24 06:44:48;;;;;;;11.00;2.20;;;25.10;99.90;;;;;;5047855;28;20189;-76
2021/12/24 06:47:19;;;;;;;8.88;2.55;;;25.10;99.90;;;;;;5052377;28;20666;-75
2021/12/24 06:49:49;;;;;;;12.38;3.00;;;25.10;99.90;;;;;;5057642;28;20703;-76
2021/12/24 06:52:20;;;;;;;7.47;2.30;;;25.20;99.90;;;;;;5052433;28;20933;-81
2021/12/24 06:54:51;;;;;;;7.70;2.38;;;25.10;99.90;;;;;;5052539;28;20220;-78
2021/12/24 06:57:23;;;;;;;9.30;2.50;;;25.10;99.90;;;;;;5047043;28;20660;-77
2021/12/24 06:59:56;;;;;;;11.82;2.78;;;25.10;99.90;;;;;;5048914;28;20231;-77
2021/12/24 07:02:27;;;;;;;9.13;2.42;;;25.00;99.90;;;;;;5052344;28;20657;-77
2021/12/24 07:04:57;;;;;;;9.20;2.83;;;25.00;99.90;;;;;;5054677;28;20201;-77
2021/12/24 07:07:28;;;;;;;6.22;2.22;;;25.00;99.90;;;;;;5052424;28;20193;-76
2021/12/24 07:09:59;;;;;;;8.25;2.22;;;24.90;99.90;;;;;;5051588;28;20248;-77
2021/12/24 07:12:30;;;;;;;10.52;2.92;;;24.80;99.90;;;;;;5052056;28;20246;-77
2021/12/24 07:15:02;;;;;;;9.93;2.88;;;24.80;99.90;;;;;;5048892;28;20186;-77
2021/12/24 07:17:33;;;;;;;11.25;2.97;;;24.70;99.90;;;;;;5053390;28;20186;-76
2021/12/24 07:20:03;;;;;;;9.48;2.80;;;24.60;99.90;;;;;;5052778;28;20182;-76
2021/12/24 07:22:34;;;;;;;10.30;2.80;;;24.50;99.90;;;;;;5051199;28;20194;-76
2021/12/24 07:25:06;;;;;;;9.48;2.75;;;24.50;99.90;;;;;;5052779;28;20236;-76
2021/12/24 07:27:37;;;;;;;10.35;2.80;;;24.50;99.90;;;;;;5051847;28;20554;-76
2021/12/24 07:30:12;;;;;;;10.75;3.13;;;24.40;99.90;;;;;;5052090;28;20196;-76
2021/12/24 07:32:43;;;;;;;9.88;3.03;;;24.40;99.90;;;;;;5049799;28;20189;-77
2021/12/24 07:35:14;;;;;;;10.63;2.97;;;24.30;99.90;;;;;;5058706;28;20247;-76
2021/12/24 07:37:45;;;;;;;11.88;2.80;;;24.30;99.90;;;;;;5044894;28;20267;-76
2021/12/24 07:40:17;;;;;;;10.70;2.72;;;24.30;99.90;;;;;;5051195;28;20594;-76
2021/12/24 07:42:49;;;;;;;10.20;3.08;;;24.30;99.90;;;;;;5043898;28;20274;-76
2021/12/24 07:45:22;;;;;;;11.90;2.90;;;24.20;99.90;;;;;;5056699;28;20532;-76
2021/12/24 07:48:06;;;;;;;12.40;2.67;;;24.20;99.90;;;;;;5051770;28;20185;-76
2021/12/24 07:53:24;;;;;;;11.90;2.80;;;24.10;99.90;;;;;;5051877;28;20290;-77
2021/12/24 07:55:58;;;;;;;11.77;2.90;;;24.10;99.90;;;;;;5045069;28;20189;-78
2021/12/24 07:58:29;;;;;;;10.43;2.95;;;24.00;99.90;;;;;;5055783;28;20189;-76
2021/12/24 08:01:01;;;;;;;8.40;3.08;;;24.00;99.90;;;;;;5051973;28;20186;-76
2021/12/24 08:03:32;;;;;;;8.15;2.67;;;24.00;99.90;;;;;;5055093;28;20186;-78
2021/12/24 08:06:03;;;;;;;11.10;3.42;;;24.00;99.90;;;;;;5056254;28;20208;-77
2021/12/24 08:08:33;;;;;;;10.98;3.00;;;24.00;99.90;;;;;;5043399;28;20549;-75
2021/12/24 08:11:04;;;;;;;13.45;2.95;;;24.10;99.90;;;;;;5058272;28;20225;-76
2021/12/24 08:13:35;;;;;;;9.73;3.15;;;24.00;99.90;;;;;;5049960;28;20209;-76
2021/12/24 08:16:08;;;;;;;11.25;3.40;;;24.00;99.90;;;;;;5061480;28;20196;-76
2021/12/24 08:18:38;;;;;;;10.05;3.15;;;24.00;99.90;;;;;;5058639;28;20185;-75
2021/12/24 08:21:09;;;;;;;11.23;2.65;;;24.00;99.90;;;;;;5054559;28;20194;-76
2021/12/24 08:23:41;;;;;;;9.73;2.80;;;24.00;99.90;;;;;;5055419;28;20638;-75
2021/12/24 08:26:12;;;;;;;10.40;3.10;;;24.00;99.90;;;;;;5055531;28;20193;-75
2021/12/24 08:28:42;;;;;;;11.32;3.35;;;24.00;99.90;;;;;;5054313;28;20189;-75
2021/12/24 08:31:15;;;;;;;13.10;3.63;;;24.10;99.90;;;;;;5055830;28;20190;-75
2021/12/24 08:33:46;;;;;;;14.20;4.13;;;24.00;99.90;;;;;;5054852;28;20202;-75
2021/12/24 08:36:17;;;;;;;12.32;3.25;;;24.00;99.90;;;;;;5054531;28;20182;-75
2021/12/24 08:38:47;;;;;;;14.15;3.58;;;24.00;99.90;;;;;;5055210;28;20182;-76
2021/12/24 08:41:18;;;;;;;12.23;3.47;;;23.90;99.90;;;;;;5054797;28;20255;-75
2021/12/24 08:43:48;;;;;;;13.55;4.20;;;23.90;99.90;;;;;;5055278;28;20614;-75
2021/12/24 08:46:21;;;;;;;10.55;3.00;;;23.90;99.90;;;;;;5055293;28;20239;-75
2021/12/24 08:48:52;;;;;;;13.05;3.08;;;23.90;99.90;;;;;;5051941;28;20225;-76
2021/12/24 08:51:23;;;;;;;12.48;3.05;;;23.80;99.90;;;;;;5055150;28;20205;-76
2021/12/24 08:53:54;;;;;;;15.43;3.10;;;23.80;99.90;;;;;;5055092;28;20263;-75
2021/12/24 08:56:26;;;;;;;10.65;3.25;;;23.70;99.90;;;;;;5054976;28;20197;-76
2021/12/24 08:58:56;;;;;;;12.88;3.22;;;23.70;99.90;;;;;;5051810;28;20690;-75
2021/12/24 09:01:29;;;;;;;12.35;3.20;;;23.60;99.90;;;;;;5050984;28;20208;-76
2021/12/24 09:04:00;;;;;;;9.55;3.25;;;23.60;99.90;;;;;;5062525;28;20190;-75
2021/12/24 09:06:31;;;;;;;12.55;3.15;;;23.60;99.90;;;;;;5056084;28;20197;-76
2021/12/24 09:09:01;;;;;;;11.95;3.05;;;23.60;99.90;;;;;;5054105;28;20185;-74
2021/12/24 09:11:32;;;;;;;12.52;3.30;;;23.60;99.90;;;;;;5054639;28;20186;-75
2021/12/24 09:14:03;;;;;;;15.48;3.53;;;23.50;99.90;;;;;;5054400;28;20616;-75
2021/12/24 09:16:37;;;;;;;11.43;2.90;;;23.50;99.90;;;;;;5055318;28;20227;-75
2021/12/24 09:19:11;;;;;;;11.15;3.40;;;23.40;99.90;;;;;;5053880;28;20197;-75
2021/12/24 09:21:42;;;;;;;12.07;3.28;;;23.40;99.90;;;;;;5053757;28;20185;-75
2021/12/24 09:24:13;;;;;;;14.18;3.63;;;23.40;99.90;;;;;;5057155;28;20205;-74
2021/12/24 09:26:43;;;;;;;13.90;3.47;;;23.30;99.90;;;;;;5057167;28;20196;-76
2021/12/24 09:29:14;;;;;;;11.88;3.42;;;23.30;99.90;;;;;;5054400;28;20185;-75
2021/12/24 09:31:46;;;;;;;14.88;3.45;;;23.30;99.90;;;;;;5054149;28;20190;-76
2021/12/24 09:34:17;;;;;;;15.27;4.00;;;23.20;99.90;;;;;;5052221;28;20206;-74
2021/12/24 09:36:51;;;;;;;11.50;2.97;;;23.20;99.90;;;;;;5052568;28;20189;-75
2021/12/24 09:39:22;;;;;;;13.25;3.40;;;23.20;99.90;;;;;;5054795;28;20190;-75
2021/12/24 09:41:52;;;;;;;10.70;3.42;;;23.10;99.90;;;;;;5054156;28;20186;-76
2021/12/24 09:44:23;;;;;;;15.25;3.65;;;23.10;99.90;;;;;;5046974;28;20714;-75
2021/12/24 09:46:56;;;;;;;9.82;3.40;;;23.10;99.90;;;;;;5053474;28;20205;-75
2021/12/24 09:49:26;;;;;;;10.20;3.15;;;23.10;99.90;;;;;;5045524;28;20214;-75
2021/12/24 09:51:57;;;;;;;10.40;3.67;;;23.00;99.90;;;;;;5053870;28;20256;-75
2021/12/24 09:54:29;;;;;;;14.93;3.88;;;23.00;99.90;;;;;;5053262;28;20268;-75
2021/12/24 09:57:01;;;;;;;13.75;3.80;;;23.00;99.90;;;;;;5056655;28;20209;-75
2021/12/24 09:59:32;;;;;;;14.77;3.67;;;22.90;99.90;;;;;;5047100;28;20182;-75
2021/12/24 10:02:07;;;;;;;16.02;3.90;;;22.90;99.90;;;;;;5056640;28;20192;-75
2021/12/24 10:04:39;;;;;;;15.93;3.97;;;22.90;99.90;;;;;;5045666;28;20192;-75
2021/12/24 10:07:11;;;;;;;16.95;4.00;;;22.80;99.90;;;;;;5054075;28;20251;-75
2021/12/24 10:09:46;;;;;;;11.68;3.67;;;22.80;99.90;;;;;;5053358;28;20221;-75
2021/12/24 10:12:21;;;;;;;11.75;3.35;;;22.80;99.90;;;;;;5053602;28;20201;-74
2021/12/24 10:14:53;;;;;;;14.07;3.30;;;22.80;99.90;;;;;;5053397;28;20282;-75
2021/12/24 10:17:27;;;;;;;17.13;3.83;;;22.80;99.90;;;;;;5055723;28;20197;-76
2021/12/24 10:19:59;;;;;;;15.07;3.65;;;22.80;99.90;;;;;;5055163;28;20190;-75
2021/12/24 10:22:30;;;;;;;12.27;3.55;;;22.80;99.90;;;;;;5048903;28;20280;-74
2021/12/24 10:25:05;;;;;;;12.45;3.60;;;22.80;99.90;;;;;;5054291;28;20182;-74
2021/12/24 10:27:38;;;;;;;15.75;3.85;;;22.70;99.90;;;;;;5054798;28;20243;-74
2021/12/24 10:30:21;;;;;;;16.25;3.63;;;22.70;99.90;;;;;;5053074;28;20221;-74
2021/12/24 10:32:56;;;;;;;15.50;3.50;;;22.70;99.90;;;;;;5053164;28;20667;-74
2021/12/24 10:35:29;;;;;;;17.63;3.75;;;22.70;99.90;;;;;;5052572;28;21026;-74
2021/12/24 10:38:16;;;;;;;13.57;3.53;;;22.70;99.90;;;;;;5052638;28;20197;-74
2021/12/24 10:40:55;;;;;;;12.55;3.38;;;22.70;99.90;;;;;;5052704;28;20192;-74
2021/12/24 10:43:29;;;;;;;12.93;3.75;;;22.70;99.90;;;;;;5052699;28;20189;-74
2021/12/24 10:46:13;;;;;;;18.83;4.15;;;22.80;99.90;;;;;;5053007;28;20242;-74
2021/12/24 10:49:03;;;;;;;16.20;3.78;;;22.80;99.90;;;;;;5051795;28;20572;-75
2021/12/24 10:51:57;;;;;;;13.98;3.38;;;22.80;99.90;;;;;;5051802;28;20186;-74
2021/12/24 10:54:28;;;;;;;15.35;3.72;;;22.80;99.90;;;;;;5051141;28;20704;-74
2021/12/24 10:57:18;;;;;;;13.88;3.83;;;22.70;99.90;;;;;;5052287;28;20185;-75
2021/12/24 10:59:50;;;;;;;16.65;3.58;;;22.80;99.90;;;;;;5050659;28;20194;-74
2021/12/24 11:02:23;;;;;;;19.10;4.28;;;22.70;99.90;;;;;;5051726;28;20185;-74
2021/12/24 11:04:56;;;;;;;17.98;4.30;;;22.70;99.90;;;;;;5046643;28;20196;-74
2021/12/24 11:07:40;;;;;;;16.67;3.80;;;22.70;99.90;;;;;;5059306;28;20190;-74
2021/12/24 11:10:14;;;;;;;18.63;4.10;;;22.70;99.90;;;;;;5052345;28;20264;-75
2021/12/24 11:12:46;;;;;;;17.50;3.90;;;22.70;99.90;;;;;;5052258;28;20185;-74
2021/12/24 11:15:26;;;;;;;17.85;3.88;;;22.70;99.90;;;;;;5052731;28;20677;-74
2021/12/24 11:17:58;;;;;;;15.93;3.75;;;22.80;99.90;;;;;;5045902;28;20232;-74
2021/12/24 11:20:32;;;;;;;18.95;3.92;;;22.80;99.90;;;;;;5052765;28;20198;-75
2021/12/24 11:23:05;;;;;;;16.27;4.18;;;22.80;99.90;;;;;;5051869;28;20190;-75
2021/12/24 11:25:37;;;;;;;15.73;3.75;;;22.80;99.90;;;;;;5054642;28;20185;-75
2021/12/24 11:28:09;;;;;;;15.50;3.58;;;22.70;99.90;;;;;;5050333;28;20193;-75
2021/12/24 11:30:41;;;;;;;16.25;4.40;;;22.80;99.90;;;;;;5043741;28;20217;-74
2021/12/24 11:33:17;;;;;;;15.00;3.65;;;22.70;99.90;;;;;;5052117;28;20189;-75
2021/12/24 11:35:51;;;;;;;19.40;4.30;;;22.70;99.90;;;;;;5052493;28;20235;-74
2021/12/24 11:38:23;;;;;;;15.70;4.07;;;22.70;99.90;;;;;;5058654;28;20189;-75
2021/12/24 11:40:56;;;;;;;13.40;3.65;;;22.70;99.90;;;;;;5057940;28;20850;-74
2021/12/24 11:43:29;;;;;;;11.75;3.50;;;22.70;99.90;;;;;;5058791;28;20200;-75
2021/12/24 11:46:02;;;;;;;12.00;3.40;;;22.70;99.90;;;;;;5048563;28;20649;-75
2021/12/24 11:48:33;;;;;;;13.80;3.55;;;22.70;99.90;;;;;;5056487;28;20619;-75
2021/12/24 11:51:09;;;;;;;13.57;4.20;;;22.70;99.90;;;;;;5062961;28;20200;-75
2021/12/24 11:53:40;;;;;;;19.08;4.20;;;22.70;99.90;;;;;;5056675;28;20188;-75
2021/12/24 11:56:14;;;;;;;12.40;3.78;;;22.70;99.90;;;;;;5058302;28;20730;-75
2021/12/24 11:58:49;;;;;;;16.42;3.65;;;22.70;99.90;;;;;;5054607;28;20193;-75
2021/12/24 12:01:22;;;;;;;14.18;3.50;;;22.80;99.90;;;;;;5061986;28;20188;-75
2021/12/24 12:03:53;;;;;;;14.93;3.80;;;22.80;99.90;;;;;;5057444;28;20198;-75
2021/12/24 12:06:38;;;;;;;13.98;3.67;;;22.80;99.90;;;;;;5058675;28;20190;-74
2021/12/24 12:09:11;;;;;;;14.35;3.95;;;22.80;99.90;;;;;;5052824;28;20239;-74
2021/12/24 12:11:43;;;;;;;12.75;3.33;;;22.80;99.90;;;;;;5060433;28;20193;-74
2021/12/24 12:14:31;;;;;;;16.75;4.03;;;22.80;99.90;;;;;;5053456;28;20243;-74
2021/12/24 12:17:06;;;;;;;13.60;3.50;;;22.80;99.90;;;;;;5056000;28;20231;-74
2021/12/24 12:19:45;;;;;;;11.60;3.55;;;22.80;99.90;;;;;;5058428;28;20197;-74
2021/12/24 12:22:28;;;;;;;9.23;3.20;;;22.80;99.90;;;;;;5054016;28;20259;-74
2021/12/24 12:25:00;;;;;;;13.93;3.53;;;22.80;99.90;;;;;;5057696;28;20194;-74
2021/12/24 12:27:38;;;;;;;10.68;3.55;;;22.80;99.90;;;;;;5057749;28;20649;-74
2021/12/24 12:30:27;;;;;;;13.30;3.92;;;22.80;99.90;;;;;;5057488;28;20243;-74
2021/12/24 12:33:08;;;;;;;14.18;3.90;;;22.80;99.90;;;;;;5058049;28;20240;-74
2021/12/24 12:35:44;;;;;;;15.05;3.67;;;22.80;99.90;;;;;;5056569;28;20218;-74
2021/12/24 12:38:33;;;;;;;13.55;4.05;;;22.80;99.90;;;;;;5051889;28;20189;-74
2021/12/24 12:41:23;;;;;;;15.38;3.30;;;22.90;99.90;;;;;;5057632;28;20197;-74
2021/12/24 12:43:54;;;;;;;9.90;3.47;;;22.90;99.90;;;;;;5056434;28;20192;-75
2021/12/24 12:46:27;;;;;;;13.32;3.97;;;22.80;99.90;;;;;;5057031;28;20212;-76
2021/12/24 12:48:59;;;;;;;16.27;3.50;;;22.90;99.90;;;;;;5054185;28;20221;-76
2021/12/24 12:51:52;;;;;;;10.95;3.55;;;22.90;99.90;;;;;;5055183;28;20205;-76
2021/12/24 12:54:52;;;;;;;8.73;3.15;;;22.90;99.90;;;;;;5050611;28;20236;-76
2021/12/24 12:57:28;;;;;;;12.05;3.25;;;22.90;99.90;;;;;;5031933;28;20193;-76
2021/12/24 13:00:23;;;;;;;15.68;4.47;;;22.90;99.90;;;;;;5052426;28;20197;-75
2021/12/24 13:03:12;;;;;;;13.88;4.55;;;22.90;99.90;;;;;;5057548;28;20519;-76
2021/12/24 13:06:06;;;;;;;13.23;3.97;;;22.90;99.90;;;;;;5054560;28;20276;-75
2021/12/24 13:08:41;;;;;;;11.90;3.75;;;22.80;99.90;;;;;;5055062;28;20190;-75
2021/12/24 13:11:16;;;;;;;13.43;3.90;;;22.80;99.90;;;;;;5053792;28;20708;-75
2021/12/24 13:13:58;;;;;;;14.40;3.85;;;22.70;99.90;;;;;;5053250;28;20189;-75
2021/12/24 13:16:33;;;;;;;9.30;3.53;;;22.70;99.90;;;;;;5046048;28;20247;-75
2021/12/24 13:19:24;;;;;;;15.63;3.97;;;22.60;99.90;;;;;;5052567;28;20198;-75
2021/12/24 13:24:43;;;;;;;15.80;3.53;;;22.60;99.90;;;;;;5049715;28;20231;-76
2021/12/24 13:27:15;;;;;;;14.50;3.80;;;22.60;99.90;;;;;;5054146;28;20212;-75
2021/12/24 13:29:46;;;;;;;13.52;3.97;;;22.60;99.90;;;;;;5053728;28;20197;-75
2021/12/24 13:32:17;;;;;;;10.55;3.60;;;22.50;99.90;;;;;;5053744;28;20194;-75
2021/12/24 13:34:58;;;;;;;12.57;3.83;;;22.50;99.90;;;;;;5054357;28;20185;-75
2021/12/24 13:37:34;;;;;;;17.85;4.22;;;22.50;99.90;;;;;;5058471;28;20238;-75
2021/12/24 13:40:10;;;;;;;16.38;4.13;;;22.40;99.90;;;;;;5051800;28;20548;-75
2021/12/24 13:42:52;;;;;;;16.05;4.20;;;22.40;99.90;;;;;;5054119;28;20182;-75
2021/12/24 13:45:23;;;;;;;10.82;3.72;;;22.40;99.90;;;;;;5050794;28;20269;-75
2021/12/24 13:48:01;;;;;;;11.73;3.90;;;22.40;99.90;;;;;;5056494;28;20218;-75
2021/12/24 13:56:24;;;;;;;12.02;3.95;;;22.30;99.90;;;;;;5050956;28;20233;-75
2021/12/24 13:58:58;;;;;;;12.10;3.80;;;22.30;99.90;;;;;;5053517;28;20193;-75
2021/12/24 14:01:30;;;;;;;10.70;3.63;;;22.20;99.90;;;;;;5045691;28;20248;-75
2021/12/24 14:04:02;;;;;;;15.13;4.40;;;22.30;99.90;;;;;;5054037;28;20192;-75
2021/12/24 14:06:36;;;;;;;16.50;4.18;;;22.20;99.90;;;;;;5052963;28;20194;-75
2021/12/24 14:09:14;;;;;;;14.20;3.83;;;22.20;99.90;;;;;;5053049;28;20196;-76
2021/12/24 14:11:46;;;;;;;12.93;4.07;;;22.20;99.90;;;;;;5053352;28;20190;-75
2021/12/24 14:14:23;;;;;;;13.65;4.00;;;22.20;99.90;;;;;;5052596;28;20216;-75
2021/12/24 14:17:21;;;;;;;13.23;3.33;;;22.20;99.90;;;;;;5048273;28;20220;-76
2021/12/24 14:20:04;;;;;;;12.52;3.70;;;22.10;99.90;;;;;;5047863;28;20249;-75
2021/12/24 14:22:36;;;;;;;12.05;3.70;;;22.10;99.90;;;;;;5047776;28;20240;-74
2021/12/24 14:25:11;;;;;;;14.80;3.85;;;22.10;99.90;;;;;;5053880;28;20661;-75
2021/12/24 14:27:43;;;;;;;19.05;4.65;;;22.10;99.90;;;;;;5053194;28;20192;-75
2021/12/24 14:30:19;;;;;;;16.52;4.65;;;22.10;99.90;;;;;;5052115;28;20229;-75
2021/12/24 14:32:51;;;;;;;12.32;4.57;;;22.00;99.90;;;;;;5053811;28;20651;-76
2021/12/24 14:35:24;;;;;;;11.40;4.32;;;22.10;99.90;;;;;;5053010;28;20213;-76
2021/12/24 14:38:01;;;;;;;11.82;4.13;;;22.10;99.90;;;;;;5051833;28;20193;-76